Time;durP1;ratioP1;P1;durP2;ratioP2;P2;SDS_P1;SDS_P2;PMS_P1;PMS_P2;Temp;Humidity;BMP_temperature;BMP_pressure;BME280_temperature;BME280_humidity;BME280_pressure;Samples;Min_cycle;Max_cycle;Signal;HPM_P1;HPM_P2
2021/08/02 00:01:47;;;;;;;0.30;0.30;;;14.40;99.90;;;;;;5095099;28;20020;-78
2021/08/02 00:04:17;;;;;;;0.10;0.10;;;14.30;99.90;;;;;;5095097;28;20024;-76
2021/08/02 00:06:50;;;;;;;0.10;0.10;;;14.30;99.90;;;;;;5094059;28;20024;-78
2021/08/02 00:09:24;;;;;;;0.10;0.10;;;14.20;99.90;;;;;;5094032;28;20020;-76
2021/08/02 00:11:58;;;;;;;0.10;0.10;;;14.20;99.90;;;;;;5094720;28;20031;-77
2021/08/02 00:14:24;;;;;;;0.10;0.10;;;14.10;99.90;;;;;;5093766;28;20047;-77
2021/08/02 00:16:51;;;;;;;0.10;0.10;;;14.10;99.90;;;;;;5094926;28;20032;-77
2021/08/02 00:19:17;;;;;;;0.10;0.10;;;14.10;99.90;;;;;;5093780;28;20031;-76
2021/08/02 00:21:44;;;;;;;0.10;0.10;;;14.10;99.90;;;;;;5094585;28;20036;-76
2021/08/02 00:24:10;;;;;;;0.10;0.10;;;14.20;99.90;;;;;;5093543;28;20024;-78
2021/08/02 00:26:37;;;;;;;0.10;0.10;;;14.20;99.90;;;;;;5094813;28;20579;-76
2021/08/02 00:29:04;;;;;;;2.08;0.30;;;14.20;99.90;;;;;;5076606;28;20471;-76
2021/08/02 00:31:30;;;;;;;0.10;0.10;;;14.20;99.90;;;;;;5093279;28;20132;-75
2021/08/02 00:33:56;;;;;;;0.10;0.10;;;14.20;99.90;;;;;;5094807;28;20471;-76
2021/08/02 00:36:43;;;;;;;0.00;0.00;;;14.40;99.90;;;;;;5094228;28;20024;-77
2021/08/02 00:39:28;;;;;;;0.10;0.10;;;14.50;99.90;;;;;;5093509;28;20028;-76
2021/08/02 00:42:26;;;;;;;0.10;0.10;;;14.40;99.90;;;;;;5093329;28;20073;-76
2021/08/02 00:45:00;;;;;;;0.13;0.13;;;14.30;99.90;;;;;;5074738;28;20449;-75
2021/08/02 00:47:30;;;;;;;0.10;0.10;;;14.10;99.90;;;;;;5093209;28;20020;-75
2021/08/02 00:50:11;;;;;;;0.08;0.08;;;14.20;99.90;;;;;;5093094;28;20034;-76
2021/08/02 00:52:42;;;;;;;0.10;0.10;;;14.10;99.90;;;;;;5094274;28;20020;-76
2021/08/02 00:55:09;;;;;;;0.10;0.10;;;14.10;99.90;;;;;;5093034;28;20035;-76
2021/08/02 00:57:37;;;;;;;0.05;0.05;;;14.00;99.90;;;;;;5094302;28;20043;-77
2021/08/02 01:00:11;;;;;;;0.20;0.20;;;13.80;99.90;;;;;;5092959;28;20078;-75
2021/08/02 01:02:40;;;;;;;0.10;0.10;;;13.70;99.90;;;;;;5092833;28;20043;-76
2021/08/02 01:05:11;;;;;;;0.10;0.10;;;13.80;99.90;;;;;;5093936;28;20024;-77
2021/08/02 01:07:44;;;;;;;0.10;0.10;;;13.80;99.90;;;;;;5093948;28;20065;-76
2021/08/02 01:10:12;;;;;;;0.10;0.10;;;13.80;99.90;;;;;;5092876;28;20392;-77
2021/08/02 01:12:41;;;;;;;0.15;0.15;;;13.80;99.90;;;;;;5092377;28;20524;-77
2021/08/02 01:15:08;;;;;;;0.35;0.35;;;13.80;99.90;;;;;;5092619;28;20085;-77
2021/08/02 01:17:34;;;;;;;0.10;0.10;;;13.70;99.90;;;;;;5092518;28;20020;-76
2021/08/02 01:20:03;;;;;;;0.10;0.10;;;13.60;99.90;;;;;;5092489;28;20085;-76
2021/08/02 01:22:30;;;;;;;0.10;0.10;;;13.70;99.90;;;;;;5093540;28;20029;-76
2021/08/02 01:24:55;;;;;;;1.55;0.70;;;13.70;99.90;;;;;;5092253;28;20024;-76
2021/08/02 01:27:44;;;;;;;0.10;0.10;;;13.70;99.90;;;;;;5094137;28;20036;-76
2021/08/02 01:30:22;;;;;;;0.10;0.10;;;13.60;99.90;;;;;;5092457;28;20016;-78
2021/08/02 01:32:49;;;;;;;0.10;0.10;;;13.80;99.90;;;;;;5093396;28;20020;-75
2021/08/02 01:35:16;;;;;;;0.10;0.10;;;13.80;99.90;;;;;;5092493;28;20024;-76
2021/08/02 01:37:43;;;;;;;0.10;0.10;;;13.90;99.90;;;;;;5075535;28;20096;-76
2021/08/02 01:40:10;;;;;;;0.20;0.20;;;13.90;99.90;;;;;;5093588;28;20078;-76
2021/08/02 01:42:39;;;;;;;0.30;0.17;;;13.80;99.90;;;;;;5093233;28;20322;-76
2021/08/02 01:45:06;;;;;;;0.30;0.30;;;13.80;99.90;;;;;;5092125;28;20055;-76
2021/08/02 01:47:44;;;;;;;0.10;0.10;;;13.70;99.90;;;;;;5091613;28;20020;-76
2021/08/02 01:50:16;;;;;;;0.10;0.10;;;13.60;99.90;;;;;;5092025;28;20030;-77
2021/08/02 01:52:54;;;;;;;0.10;0.10;;;13.70;99.90;;;;;;5092120;28;20047;-76
2021/08/02 01:55:22;;;;;;;0.10;0.10;;;13.70;99.90;;;;;;5093206;28;20028;-76
2021/08/02 01:58:01;;;;;;;0.73;0.63;;;13.60;99.90;;;;;;5091931;28;20107;-75
2021/08/02 02:00:30;;;;;;;0.10;0.10;;;13.60;99.90;;;;;;5093212;28;20016;-77
2021/08/02 02:03:35;;;;;;;0.10;0.10;;;13.80;99.90;;;;;;5074502;28;20046;-75
2021/08/02 02:06:06;;;;;;;0.25;0.25;;;14.00;99.90;;;;;;5053433;28;20031;-76
2021/08/02 02:08:41;;;;;;;0.10;0.10;;;14.10;99.90;;;;;;5053659;28;20051;-77
2021/08/02 02:11:09;;;;;;;0.40;0.40;;;14.00;99.90;;;;;;5056923;28;20061;-77
2021/08/02 02:13:45;;;;;;;0.28;0.28;;;13.90;99.90;;;;;;5091506;28;20040;-76
2021/08/02 02:16:15;;;;;;;0.10;0.10;;;13.70;99.90;;;;;;5092932;28;20036;-78
2021/08/02 02:18:49;;;;;;;0.20;0.20;;;13.70;99.90;;;;;;5091583;28;20020;-75
2021/08/02 02:21:17;;;;;;;0.20;0.20;;;13.50;99.90;;;;;;5091349;28;20028;-76
2021/08/02 02:23:45;;;;;;;0.10;0.10;;;13.40;99.90;;;;;;5091157;28;20031;-76
2021/08/02 02:26:12;;;;;;;0.30;0.30;;;13.40;99.90;;;;;;5092728;28;20164;-77
2021/08/02 02:28:39;;;;;;;0.10;0.10;;;13.40;99.90;;;;;;5092526;28;20016;-76
2021/08/02 02:31:07;;;;;;;0.20;0.20;;;13.30;99.90;;;;;;5092443;28;20228;-76
2021/08/02 02:33:34;;;;;;;0.60;0.50;;;13.20;99.90;;;;;;5092263;28;20087;-76
2021/08/02 02:36:02;;;;;;;0.10;0.10;;;13.00;99.90;;;;;;5091365;28;20425;-76
2021/08/02 02:38:28;;;;;;;0.75;0.32;;;13.00;99.90;;;;;;5091204;28;20077;-76
2021/08/02 02:40:55;;;;;;;0.30;0.30;;;13.00;99.90;;;;;;5092266;28;20028;-76
2021/08/02 02:43:21;;;;;;;0.10;0.10;;;13.00;99.90;;;;;;5074128;28;20043;-76
2021/08/02 02:45:48;;;;;;;0.40;0.40;;;12.90;99.90;;;;;;5092422;28;20460;-76
2021/08/02 02:48:16;;;;;;;0.10;0.10;;;12.90;99.90;;;;;;5092374;28;20031;-76
2021/08/02 02:50:45;;;;;;;0.20;0.20;;;13.00;99.90;;;;;;5074127;28;20429;-76
2021/08/02 02:53:14;;;;;;;0.17;0.17;;;13.20;99.90;;;;;;5091984;28;20016;-77
2021/08/02 02:55:42;;;;;;;0.47;0.45;;;13.40;99.90;;;;;;5092176;28;20078;-77
2021/08/02 02:58:08;;;;;;;0.10;0.10;;;13.50;99.90;;;;;;5090960;28;20028;-76
2021/08/02 03:00:34;;;;;;;0.88;0.30;;;13.60;99.90;;;;;;5090568;28;20031;-76
2021/08/02 03:03:03;;;;;;;0.10;0.10;;;13.60;99.90;;;;;;5090558;28;20047;-76
2021/08/02 03:05:30;;;;;;;0.10;0.10;;;13.60;99.90;;;;;;5073853;28;20024;-76
2021/08/02 03:07:59;;;;;;;0.10;0.10;;;13.80;99.90;;;;;;5090851;28;20031;-75
2021/08/02 03:10:26;;;;;;;0.10;0.10;;;14.00;99.90;;;;;;5090834;28;20110;-76
2021/08/02 03:12:53;;;;;;;0.10;0.10;;;14.00;99.90;;;;;;5091798;28;20031;-75
2021/08/02 03:15:20;;;;;;;4.95;0.47;;;14.00;99.90;;;;;;5073913;28;20134;-76
2021/08/02 03:17:46;;;;;;;0.10;0.10;;;13.90;99.90;;;;;;5073917;28;20150;-76
2021/08/02 03:20:13;;;;;;;0.10;0.10;;;13.90;99.90;;;;;;5091974;28;20383;-76
2021/08/02 03:22:50;;;;;;;0.10;0.10;;;14.00;99.90;;;;;;5091810;28;20027;-75
2021/08/02 03:25:39;;;;;;;0.10;0.10;;;14.00;99.90;;;;;;5092037;28;20107;-76
2021/08/02 03:28:05;;;;;;;0.10;0.10;;;14.20;99.90;;;;;;5090574;28;20032;-77
2021/08/02 03:30:37;;;;;;;0.25;0.25;;;14.20;99.90;;;;;;5091844;28;20039;-76
2021/08/02 03:33:05;;;;;;;0.10;0.10;;;14.10;99.90;;;;;;5091798;28;20020;-76
2021/08/02 03:35:33;;;;;;;0.10;0.10;;;14.10;99.90;;;;;;5090649;28;20028;-78
2021/08/02 03:38:01;;;;;;;0.10;0.10;;;14.00;99.90;;;;;;5090621;28;20389;-78
2021/08/02 03:40:28;;;;;;;0.10;0.10;;;14.10;99.90;;;;;;5091598;28;20021;-76
2021/08/02 03:42:54;;;;;;;0.05;0.05;;;14.20;99.90;;;;;;5091469;28;20379;-77
2021/08/02 03:45:20;;;;;;;0.10;0.10;;;14.10;99.90;;;;;;5090332;28;20067;-76
2021/08/02 03:47:47;;;;;;;0.20;0.20;;;14.00;99.90;;;;;;5090465;28;20024;-76
2021/08/02 03:50:13;;;;;;;0.30;0.30;;;14.20;99.90;;;;;;5090513;28;20024;-76
2021/08/02 03:52:39;;;;;;;0.80;0.30;;;14.00;99.90;;;;;;5091539;28;20376;-76
2021/08/02 03:55:06;;;;;;;0.30;0.30;;;14.10;99.90;;;;;;5091360;28;20024;-76
2021/08/02 03:57:32;;;;;;;0.10;0.10;;;14.10;99.90;;;;;;5090572;28;20079;-77
2021/08/02 03:59:58;;;;;;;0.00;0.00;;;14.00;99.90;;;;;;5090284;28;20028;-75
2021/08/02 04:02:24;;;;;;;0.17;0.17;;;14.00;99.90;;;;;;5090183;28;20070;-77
2021/08/02 04:04:50;;;;;;;0.10;0.10;;;14.00;99.90;;;;;;5089999;28;20024;-77
2021/08/02 04:07:16;;;;;;;0.20;0.20;;;14.00;99.90;;;;;;5090227;28;20496;-77
2021/08/02 04:09:42;;;;;;;0.45;0.45;;;14.00;99.90;;;;;;5090202;28;20020;-76
2021/08/02 04:12:11;;;;;;;0.10;0.10;;;14.00;99.90;;;;;;5092154;28;20024;-76
2021/08/02 04:14:37;;;;;;;0.13;0.13;;;13.90;99.90;;;;;;5076937;28;20368;-76
2021/08/02 04:17:04;;;;;;;0.10;0.10;;;13.80;99.90;;;;;;5095292;28;20107;-76
2021/08/02 04:19:30;;;;;;;0.43;0.43;;;13.80;99.90;;;;;;5093700;28;20030;-75
2021/08/02 04:21:58;;;;;;;0.57;0.50;;;13.70;99.90;;;;;;5094820;28;20020;-76
2021/08/02 04:24:23;;;;;;;1.75;1.48;;;13.60;99.90;;;;;;5076596;28;20024;-76
2021/08/02 04:26:49;;;;;;;0.32;0.32;;;13.60;99.90;;;;;;5094890;28;20043;-77
2021/08/02 04:29:15;;;;;;;0.05;0.05;;;13.70;99.90;;;;;;5094914;28;20028;-77
2021/08/02 04:31:40;;;;;;;0.10;0.10;;;13.80;99.90;;;;;;5093349;28;20027;-78
2021/08/02 04:34:06;;;;;;;0.10;0.10;;;13.70;99.90;;;;;;5093478;28;20032;-76
2021/08/02 04:36:32;;;;;;;0.73;0.22;;;13.80;99.90;;;;;;5093439;28;20032;-75
2021/08/02 04:38:58;;;;;;;0.17;0.17;;;13.70;99.90;;;;;;5093320;28;20066;-76
2021/08/02 04:41:23;;;;;;;0.10;0.10;;;13.60;99.90;;;;;;5093160;28;20027;-76
2021/08/02 04:43:49;;;;;;;0.10;0.10;;;13.60;99.90;;;;;;5093464;28;20056;-76
2021/08/02 04:46:16;;;;;;;0.10;0.10;;;13.70;99.90;;;;;;5076463;28;20020;-77
2021/08/02 04:48:42;;;;;;;0.10;0.10;;;13.80;99.90;;;;;;5093251;28;20111;-76
2021/08/02 04:51:08;;;;;;;0.10;0.10;;;13.90;99.90;;;;;;5093055;28;20543;-75
2021/08/02 04:53:34;;;;;;;0.20;0.20;;;13.90;99.90;;;;;;5094456;28;20059;-76
2021/08/02 04:56:00;;;;;;;0.10;0.10;;;14.00;99.90;;;;;;5076085;28;20107;-77
2021/08/02 04:58:25;;;;;;;0.10;0.10;;;14.10;99.90;;;;;;5094256;28;20020;-76
2021/08/02 05:00:51;;;;;;;0.10;0.10;;;14.10;99.90;;;;;;5094252;28;20016;-75
2021/08/02 05:03:17;;;;;;;0.25;0.25;;;14.10;99.90;;;;;;5094025;28;20028;-76
2021/08/02 05:05:42;;;;;;;0.10;0.10;;;14.10;99.90;;;;;;5094194;28;20024;-75
2021/08/02 05:08:08;;;;;;;0.10;0.10;;;14.10;99.90;;;;;;5092839;28;20020;-76
2021/08/02 05:10:34;;;;;;;0.10;0.10;;;14.10;99.90;;;;;;5092867;28;20020;-76
2021/08/02 05:13:00;;;;;;;0.17;0.17;;;14.10;99.90;;;;;;5092650;28;20024;-77
2021/08/02 05:15:26;;;;;;;0.10;0.10;;;14.20;99.90;;;;;;5093855;28;20021;-76
2021/08/02 05:17:52;;;;;;;0.10;0.10;;;14.20;99.90;;;;;;5092572;28;20438;-77
2021/08/02 05:20:19;;;;;;;0.20;0.20;;;14.30;99.90;;;;;;5075739;28;20020;-76
2021/08/02 05:22:45;;;;;;;0.20;0.20;;;14.30;99.90;;;;;;5093536;28;20024;-76
2021/08/02 05:25:12;;;;;;;0.20;0.20;;;14.40;99.90;;;;;;5091374;28;20558;-76
2021/08/02 05:27:38;;;;;;;1.40;0.77;;;14.50;99.90;;;;;;5090753;28;20020;-76
2021/08/02 05:30:04;;;;;;;0.17;0.17;;;14.60;99.90;;;;;;5090509;28;20304;-76
2021/08/02 05:32:30;;;;;;;1.65;0.55;;;14.50;99.90;;;;;;5091963;28;20050;-75
2021/08/02 05:34:55;;;;;;;13.70;1.35;;;14.60;99.90;;;;;;5073998;28;20370;-77
2021/08/02 05:37:21;;;;;;;0.10;0.10;;;14.50;99.90;;;;;;5092067;28;20472;-76
2021/08/02 05:39:50;;;;;;;0.85;0.60;;;14.50;99.90;;;;;;5090521;28;20047;-76
2021/08/02 05:42:16;;;;;;;0.63;0.63;;;14.40;99.90;;;;;;5073337;28;20027;-76
2021/08/02 05:44:41;;;;;;;0.10;0.10;;;14.20;99.90;;;;;;5089643;28;20024;-76
2021/08/02 05:47:11;;;;;;;1.05;0.95;;;14.20;99.90;;;;;;5090196;28;20028;-76
2021/08/02 05:49:37;;;;;;;12.10;1.60;;;14.20;99.90;;;;;;5087146;28;20082;-76
2021/08/02 05:52:03;;;;;;;1.27;1.17;;;14.10;99.90;;;;;;5092931;28;20555;-76
2021/08/02 05:54:29;;;;;;;2.70;0.60;;;14.10;99.90;;;;;;5092669;28;20031;-75
2021/08/02 05:56:55;;;;;;;0.30;0.30;;;14.30;99.90;;;;;;5091399;28;20499;-77
2021/08/02 05:59:21;;;;;;;0.10;0.10;;;14.50;99.90;;;;;;5092179;28;20032;-78
2021/08/02 06:01:46;;;;;;;0.10;0.10;;;14.70;99.90;;;;;;5072772;28;20024;-76
2021/08/02 06:04:12;;;;;;;0.20;0.20;;;14.90;99.90;;;;;;5090418;28;20028;-75
2021/08/02 06:06:38;;;;;;;0.43;0.43;;;14.90;99.90;;;;;;5074651;28;20044;-76
2021/08/02 06:09:04;;;;;;;0.32;0.32;;;14.80;99.90;;;;;;5073374;28;20066;-76
2021/08/02 06:11:29;;;;;;;0.52;0.52;;;14.70;99.90;;;;;;5090454;28;20016;-76
2021/08/02 06:13:55;;;;;;;0.80;0.80;;;14.90;99.90;;;;;;5090007;28;20020;-77
2021/08/02 06:16:22;;;;;;;0.20;0.20;;;15.00;99.90;;;;;;5089936;28;20036;-79
2021/08/02 06:18:48;;;;;;;0.20;0.20;;;15.10;99.90;;;;;;5070353;28;20035;-75
2021/08/02 06:21:14;;;;;;;8.77;0.82;;;15.10;99.90;;;;;;5090652;28;20021;-76
2021/08/02 06:23:40;;;;;;;0.20;0.20;;;15.30;99.90;;;;;;5090235;28;20063;-78
2021/08/02 06:26:06;;;;;;;0.08;0.08;;;15.40;99.90;;;;;;5088960;28;20047;-76
2021/08/02 06:28:32;;;;;;;0.15;0.10;;;15.60;99.90;;;;;;5089437;28;20032;-76
2021/08/02 06:31:01;;;;;;;0.10;0.10;;;15.90;99.90;;;;;;5090148;28;20116;-80
2021/08/02 06:33:28;;;;;;;0.60;0.60;;;16.00;99.90;;;;;;5087906;28;20027;-75
2021/08/02 06:35:54;;;;;;;0.20;0.20;;;16.00;99.90;;;;;;5089723;28;20375;-76
2021/08/02 06:38:19;;;;;;;0.85;0.30;;;15.90;99.90;;;;;;5090911;28;20081;-76
2021/08/02 06:40:45;;;;;;;0.10;0.10;;;15.90;99.90;;;;;;5090193;28;20051;-75
2021/08/02 06:43:12;;;;;;;0.10;0.10;;;16.10;99.90;;;;;;5090726;28;20024;-76
2021/08/02 06:45:39;;;;;;;0.10;0.10;;;16.20;99.90;;;;;;5073065;28;20035;-77
2021/08/02 06:48:04;;;;;;;0.10;0.10;;;16.20;99.90;;;;;;5090505;28;20023;-76
2021/08/02 06:50:30;;;;;;;0.30;0.30;;;16.20;99.90;;;;;;5090072;28;20036;-75
2021/08/02 06:52:56;;;;;;;0.30;0.30;;;16.20;99.90;;;;;;5072568;28;20031;-76
2021/08/02 06:55:22;;;;;;;0.10;0.10;;;16.30;99.90;;;;;;5090826;28;20028;-77
2021/08/02 06:57:48;;;;;;;0.20;0.20;;;16.30;99.90;;;;;;5088811;28;20031;-76
2021/08/02 07:00:14;;;;;;;0.25;0.25;;;16.30;99.90;;;;;;5091155;28;20024;-76
2021/08/02 07:02:40;;;;;;;0.10;0.10;;;16.40;99.90;;;;;;5089044;28;20495;-77
2021/08/02 07:05:06;;;;;;;0.10;0.10;;;16.60;99.90;;;;;;5072800;28;20066;-76
2021/08/02 07:07:32;;;;;;;0.10;0.10;;;16.60;99.90;;;;;;5088778;28;20085;-77
2021/08/02 07:09:58;;;;;;;1.58;0.73;;;16.80;99.90;;;;;;5090900;28;20480;-76
2021/08/02 07:12:24;;;;;;;0.10;0.10;;;16.70;99.90;;;;;;5072059;28;20020;-76
2021/08/02 07:14:49;;;;;;;0.10;0.10;;;16.80;99.90;;;;;;5089518;28;20053;-76
2021/08/02 07:17:15;;;;;;;0.10;0.10;;;17.00;99.90;;;;;;5090743;28;20048;-76
2021/08/02 07:19:41;;;;;;;0.10;0.10;;;17.20;99.90;;;;;;5090189;28;20115;-78
2021/08/02 07:22:07;;;;;;;3.97;1.27;;;17.50;99.90;;;;;;5090998;28;20024;-78
2021/08/02 07:24:32;;;;;;;0.10;0.10;;;17.50;99.90;;;;;;5088547;28;20496;-76
2021/08/02 07:26:58;;;;;;;0.05;0.05;;;17.70;99.90;;;;;;5088873;28;20020;-79
2021/08/02 07:29:24;;;;;;;0.17;0.17;;;17.80;99.90;;;;;;5090500;28;20031;-76
2021/08/02 07:31:50;;;;;;;11.80;1.98;;;17.80;99.90;;;;;;5089363;28;20024;-77
2021/08/02 07:34:16;;;;;;;0.13;0.13;;;17.70;99.90;;;;;;5088684;28;20503;-77
2021/08/02 07:36:41;;;;;;;0.10;0.10;;;17.60;99.90;;;;;;5090530;28;20024;-77
2021/08/02 07:39:07;;;;;;;0.10;0.10;;;17.80;99.90;;;;;;5090124;28;20031;-78
2021/08/02 07:41:33;;;;;;;0.28;0.28;;;18.10;99.90;;;;;;5073982;28;20404;-77
2021/08/02 07:44:00;;;;;;;0.25;0.25;;;18.00;99.90;;;;;;5089772;28;20062;-76
2021/08/02 07:46:26;;;;;;;0.10;0.10;;;18.10;99.90;;;;;;5090193;28;20418;-76
2021/08/02 07:48:52;;;;;;;0.20;0.20;;;18.00;99.90;;;;;;5093555;28;20024;-76
2021/08/02 07:51:21;;;;;;;0.40;0.40;;;18.10;99.90;;;;;;5094051;28;20028;-76
2021/08/02 07:53:47;;;;;;;0.10;0.10;;;17.80;99.90;;;;;;5092273;28;20024;-76
2021/08/02 07:56:13;;;;;;;0.10;0.10;;;17.90;99.90;;;;;;5075429;28;20039;-77
2021/08/02 07:58:38;;;;;;;1.17;0.77;;;18.30;99.90;;;;;;5093302;28;20031;-76
2021/08/02 08:01:04;;;;;;;0.03;0.03;;;18.70;99.90;;;;;;5093954;28;20024;-77
2021/08/02 08:03:30;;;;;;;1.60;0.95;;;18.90;99.90;;;;;;5091759;28;20061;-77
2021/08/02 08:05:56;;;;;;;0.00;0.00;;;19.20;99.90;;;;;;5092835;28;20024;-76
2021/08/02 08:08:22;;;;;;;0.10;0.10;;;19.40;99.90;;;;;;5092156;28;20383;-77
2021/08/02 08:10:48;;;;;;;0.10;0.10;;;19.70;99.20;;;;;;5075072;28;20027;-79
2021/08/02 08:13:15;;;;;;;0.10;0.10;;;19.50;98.20;;;;;;5092302;28;20044;-80
2021/08/02 08:15:41;;;;;;;0.05;0.05;;;18.80;97.90;;;;;;5093711;28;20074;-76
2021/08/02 08:18:06;;;;;;;0.10;0.10;;;18.60;99.90;;;;;;5093962;28;20016;-76
2021/08/02 08:20:32;;;;;;;0.10;0.10;;;18.90;99.90;;;;;;5075154;28;20024;-76
2021/08/02 08:22:58;;;;;;;0.55;0.40;;;19.10;98.20;;;;;;5093615;28;20043;-76
2021/08/02 08:25:24;;;;;;;0.10;0.10;;;18.90;98.60;;;;;;5091484;28;20024;-79
2021/08/02 08:27:50;;;;;;;0.10;0.10;;;19.10;99.70;;;;;;5075731;28;20480;-76
2021/08/02 08:30:19;;;;;;;0.10;0.10;;;19.30;98.50;;;;;;5091738;28;20024;-76
2021/08/02 08:32:44;;;;;;;0.10;0.10;;;19.80;97.90;;;;;;5092395;28;20027;-77
2021/08/02 08:35:11;;;;;;;0.03;0.03;;;20.20;95.70;;;;;;5092808;28;20016;-77
2021/08/02 08:37:38;;;;;;;0.10;0.10;;;20.30;93.50;;;;;;5093539;28;20388;-76
2021/08/02 08:40:05;;;;;;;0.35;0.22;;;20.70;93.30;;;;;;5092422;28;20098;-78
2021/08/02 08:42:32;;;;;;;0.00;0.00;;;20.80;92.00;;;;;;5092064;28;20032;-77
2021/08/02 08:44:58;;;;;;;1.20;1.10;;;21.10;92.00;;;;;;5091387;28;20031;-77
2021/08/02 08:47:25;;;;;;;4.55;0.47;;;21.40;90.90;;;;;;5092185;28;20020;-78
2021/08/02 08:49:51;;;;;;;0.00;0.00;;;21.30;89.70;;;;;;5092531;28;20023;-77
2021/08/02 08:52:16;;;;;;;0.10;0.10;;;21.20;90.60;;;;;;5091596;28;20020;-79
2021/08/02 08:54:43;;;;;;;0.08;0.08;;;21.50;88.30;;;;;;5091269;28;20085;-78
2021/08/02 08:57:11;;;;;;;0.00;0.00;;;21.10;88.80;;;;;;5074613;28;20046;-77
2021/08/02 08:59:53;;;;;;;0.25;0.25;;;20.60;89.40;;;;;;5091177;28;20089;-77
2021/08/02 09:02:26;;;;;;;0.30;0.30;;;20.10;90.10;;;;;;5093077;28;20054;-77
2021/08/02 09:04:54;;;;;;;0.10;0.10;;;20.30;90.20;;;;;;5092129;28;20272;-75
2021/08/02 09:07:33;;;;;;;0.00;0.00;;;20.90;88.50;;;;;;5093538;28;20472;-76
2021/08/02 09:10:01;;;;;;;0.10;0.10;;;20.70;87.10;;;;;;5074022;28;20020;-77
2021/08/02 09:12:27;;;;;;;0.08;0.08;;;20.30;86.90;;;;;;5092083;28;20076;-76
2021/08/02 09:14:59;;;;;;;0.10;0.10;;;20.00;90.10;;;;;;5090836;28;20028;-77
2021/08/02 09:17:37;;;;;;;0.30;0.30;;;20.60;90.60;;;;;;5092531;28;20020;-77
2021/08/02 09:20:20;;;;;;;0.10;0.10;;;21.30;89.50;;;;;;5090843;28;20488;-76
2021/08/02 09:22:47;;;;;;;0.10;0.10;;;20.90;87.30;;;;;;5092755;28;20093;-76
2021/08/02 09:25:22;;;;;;;0.65;0.65;;;20.70;87.70;;;;;;5090649;28;20389;-75
2021/08/02 09:27:49;;;;;;;0.10;0.10;;;20.30;84.90;;;;;;5092244;28;20026;-77
2021/08/02 09:30:23;;;;;;;0.08;0.08;;;20.20;88.50;;;;;;5091713;28;20020;-78
2021/08/02 09:32:53;;;;;;;0.10;0.10;;;20.20;89.20;;;;;;5070490;28;20027;-76
2021/08/02 09:35:34;;;;;;;0.55;0.10;;;20.20;86.30;;;;;;5090315;28;20096;-76
2021/08/02 09:38:05;;;;;;;0.90;0.90;;;21.30;84.00;;;;;;5074361;28;20059;-77
2021/08/02 09:40:44;;;;;;;1.45;0.65;;;21.90;78.90;;;;;;5091763;28;20036;-76
2021/08/02 09:43:17;;;;;;;0.22;0.22;;;21.40;78.30;;;;;;5090546;28;20032;-76
2021/08/02 09:45:54;;;;;;;0.10;0.10;;;21.50;77.90;;;;;;5073600;28;20181;-76
2021/08/02 09:48:21;;;;;;;0.03;0.03;;;22.20;79.60;;;;;;5092105;28;20016;-77
2021/08/02 09:50:49;;;;;;;0.13;0.10;;;22.90;74.40;;;;;;5090259;28;20020;-76
2021/08/02 09:53:19;;;;;;;0.00;0.00;;;23.00;70.30;;;;;;5091155;28;20020;-77
2021/08/02 09:55:47;;;;;;;0.10;0.10;;;22.50;72.00;;;;;;5090181;28;20512;-76
2021/08/02 09:58:21;;;;;;;0.10;0.10;;;22.20;71.80;;;;;;5073638;28;20122;-77
2021/08/02 10:00:47;;;;;;;1.10;0.40;;;22.50;70.50;;;;;;5091421;28;20036;-76
2021/08/02 10:03:15;;;;;;;0.10;0.10;;;22.90;70.20;;;;;;5091524;28;20032;-76
2021/08/02 10:05:41;;;;;;;0.10;0.10;;;22.70;72.00;;;;;;5091091;28;20056;-76
2021/08/02 10:08:07;;;;;;;0.00;0.00;;;23.10;72.70;;;;;;5092134;28;20475;-76
2021/08/02 10:10:36;;;;;;;0.10;0.10;;;23.30;70.00;;;;;;5090454;28;20471;-77
2021/08/02 10:13:02;;;;;;;0.38;0.38;;;23.10;69.40;;;;;;5091604;28;20024;-76
2021/08/02 10:15:29;;;;;;;0.52;0.52;;;22.30;66.80;;;;;;5090149;28;20028;-76
2021/08/02 10:17:58;;;;;;;0.00;0.00;;;21.70;69.40;;;;;;5074263;28;20110;-76
2021/08/02 10:20:29;;;;;;;0.15;0.15;;;21.80;68.60;;;;;;5091346;28;20169;-76
2021/08/02 10:22:56;;;;;;;0.10;0.10;;;21.50;68.10;;;;;;5085887;28;20028;-76
2021/08/02 10:25:34;;;;;;;1.10;0.68;;;21.10;69.70;;;;;;5089315;28;20034;-76
2021/08/02 10:28:14;;;;;;;0.00;0.00;;;20.60;73.30;;;;;;5090519;28;20020;-77
2021/08/02 10:30:42;;;;;;;0.40;0.40;;;20.60;76.00;;;;;;5091031;28;20129;-76
2021/08/02 10:33:08;;;;;;;0.15;0.15;;;21.20;75.00;;;;;;5089540;28;20024;-76
2021/08/02 10:35:44;;;;;;;6.88;0.65;;;21.40;76.00;;;;;;5089523;28;20024;-75
2021/08/02 10:38:11;;;;;;;0.10;0.05;;;21.90;75.10;;;;;;5088181;28;20028;-76
2021/08/02 10:40:54;;;;;;;0.00;0.00;;;21.90;72.60;;;;;;5089241;28;20091;-77
2021/08/02 10:43:35;;;;;;;0.10;0.10;;;21.80;71.20;;;;;;5085563;28;20027;-76
2021/08/02 10:46:20;;;;;;;0.20;0.20;;;21.30;70.90;;;;;;5093519;28;20024;-77
2021/08/02 10:48:47;;;;;;;0.57;0.43;;;21.60;71.10;;;;;;5087146;28;20029;-76
2021/08/02 10:51:22;;;;;;;0.38;0.38;;;22.00;72.50;;;;;;5072617;28;20503;-76
2021/08/02 10:53:57;;;;;;;0.00;0.00;;;22.60;72.70;;;;;;5090227;28;20433;-77
2021/08/02 10:56:31;;;;;;;10.98;1.55;;;23.30;68.90;;;;;;5089158;28;20036;-76
2021/08/02 10:58:59;;;;;;;0.00;0.00;;;24.00;66.10;;;;;;5089390;28;20064;-76
2021/08/02 11:01:26;;;;;;;0.00;0.00;;;24.90;62.60;;;;;;5084386;28;20111;-78
2021/08/02 11:03:57;;;;;;;0.10;0.10;;;25.00;59.30;;;;;;5090555;28;20035;-77
2021/08/02 11:06:26;;;;;;;0.10;0.10;;;25.30;62.80;;;;;;5089145;28;20020;-78
2021/08/02 11:08:56;;;;;;;0.05;0.05;;;25.30;60.20;;;;;;5090929;28;20032;-76
2021/08/02 11:11:29;;;;;;;0.08;0.08;;;24.50;59.80;;;;;;5090397;28;20416;-75
2021/08/02 11:14:20;;;;;;;0.00;0.00;;;24.30;60.00;;;;;;5090736;28;20028;-76
2021/08/02 11:16:50;;;;;;;0.10;0.10;;;24.80;60.10;;;;;;5085972;28;20086;-76
2021/08/02 11:19:20;;;;;;;0.40;0.32;;;24.60;59.10;;;;;;5091309;28;20056;-76
2021/08/02 11:21:47;;;;;;;1.55;0.90;;;24.40;60.70;;;;;;5093287;28;20107;-76
2021/08/02 11:24:14;;;;;;;0.32;0.30;;;24.70;60.70;;;;;;5095043;28;20379;-76
2021/08/02 11:26:53;;;;;;;0.00;0.00;;;24.70;59.20;;;;;;5093666;28;20487;-76
2021/08/02 11:29:25;;;;;;;0.00;0.00;;;24.40;61.20;;;;;;5093725;28;20387;-79
2021/08/02 11:31:58;;;;;;;0.00;0.00;;;24.80;61.20;;;;;;5076094;28;20384;-76
2021/08/02 11:34:25;;;;;;;0.10;0.10;;;25.30;58.20;;;;;;5094752;28;20129;-76
2021/08/02 11:37:12;;;;;;;0.00;0.00;;;26.00;55.50;;;;;;5094665;28;20028;-76
2021/08/02 11:39:46;;;;;;;0.10;0.05;;;25.70;53.50;;;;;;5092178;28;20489;-77
2021/08/02 11:42:15;;;;;;;0.00;0.00;;;25.80;53.90;;;;;;5092660;28;20024;-77
2021/08/02 11:44:43;;;;;;;0.40;0.10;;;25.60;52.50;;;;;;5093442;28;20024;-76
2021/08/02 11:47:18;;;;;;;5.88;4.40;;;25.80;53.70;;;;;;5092764;28;20024;-76
2021/08/02 11:49:45;;;;;;;0.10;0.10;;;25.50;53.10;;;;;;5093273;28;20044;-77
2021/08/02 11:52:15;;;;;;;0.57;0.47;;;25.80;54.10;;;;;;5093583;28;20456;-76
2021/08/02 11:54:41;;;;;;;0.00;0.00;;;24.50;54.20;;;;;;5094766;28;20031;-76
2021/08/02 11:57:20;;;;;;;0.43;0.43;;;24.80;55.70;;;;;;5092584;28;20063;-76
2021/08/02 12:00:00;;;;;;;1.73;0.73;;;24.90;61.10;;;;;;5092774;28;20031;-76
2021/08/02 12:02:37;;;;;;;0.10;0.10;;;24.30;65.80;;;;;;5075348;28;20116;-75
2021/08/02 12:05:06;;;;;;;0.47;0.47;;;23.70;69.20;;;;;;5093886;28;20368;-76
2021/08/02 12:07:32;;;;;;;0.03;0.03;;;24.00;66.80;;;;;;5093666;28;20058;-76
2021/08/02 12:10:18;;;;;;;0.10;0.10;;;24.20;66.80;;;;;;5094567;28;20024;-76
2021/08/02 12:13:00;;;;;;;0.00;0.00;;;24.40;65.60;;;;;;5090082;28;20021;-77
2021/08/02 12:15:26;;;;;;;0.25;0.25;;;24.40;63.80;;;;;;5093010;28;20039;-76
2021/08/02 12:17:53;;;;;;;0.73;0.40;;;24.30;64.10;;;;;;5092072;28;20043;-76
2021/08/02 12:20:36;;;;;;;0.05;0.05;;;23.70;64.60;;;;;;5094131;28;20024;-76
2021/08/02 12:23:07;;;;;;;0.00;0.00;;;22.90;66.90;;;;;;5093329;28;20497;-76
2021/08/02 12:25:46;;;;;;;0.10;0.10;;;22.70;68.90;;;;;;5075772;28;20515;-77
2021/08/02 12:28:12;;;;;;;0.00;0.00;;;22.50;70.00;;;;;;5075577;28;20029;-76
2021/08/02 12:30:40;;;;;;;0.00;0.00;;;22.40;71.50;;;;;;5092940;28;20027;-76
2021/08/02 12:33:08;;;;;;;0.15;0.15;;;22.20;70.30;;;;;;5090625;28;20024;-76
2021/08/02 12:35:34;;;;;;;0.10;0.10;;;22.00;71.80;;;;;;5093989;28;20028;-77
2021/08/02 12:38:02;;;;;;;0.00;0.00;;;21.80;71.20;;;;;;5093290;28;20080;-76
2021/08/02 12:40:28;;;;;;;0.00;0.00;;;22.10;71.60;;;;;;5093660;28;20028;-76
2021/08/02 12:42:54;;;;;;;0.57;0.57;;;22.60;69.30;;;;;;5074602;28;20475;-76
2021/08/02 12:45:20;;;;;;;0.75;0.55;;;22.70;68.80;;;;;;5091827;28;20038;-77
2021/08/02 12:47:48;;;;;;;0.10;0.10;;;22.40;69.50;;;;;;5091781;28;20137;-76
2021/08/02 12:50:15;;;;;;;7.03;1.20;;;22.40;69.10;;;;;;5075366;28;20130;-76
2021/08/02 12:52:42;;;;;;;0.10;0.10;;;22.30;71.50;;;;;;5089915;28;20501;-77
2021/08/02 12:55:10;;;;;;;0.00;0.00;;;22.10;73.60;;;;;;5093227;28;20032;-76